Accueil
METAR-TAF:

METAR-TAF

Aéroports :

Uherské Hradiště, République Tchèque

latitude: 49-01-46N, longitude: 017-26-23E, altitude: 177 m

Observation

Le bulletin a été fait il y a 9 heures et 53 minutes, à 16:00 UTC
Vent 8 kt de sud
Température 6°C
Humidité 87%
Pression 1019 hPa
Visibilité: 8000 m
Quelques nuages à une hauteur de 900 ft
Ciel couvert à une hauteur de 1100 ft

METAR: LKKU 051600Z 19008KT 8000 FEW009 OVC011 06/04 Q1019

Heure: 02:53 (01:53 UTC)


TAF: absent

Observations et prévisions météorologiques de plus de 4000 aéroports (messages METAR et TAF).

Les stations disponibles sont représentées par des disques jaunes et rouges sur la carte.

Passer la souris dessus pour voir le nom de la station.

Cliquer dessus pour voir les observations et prévisions météorologiques.

Pour changer de carte: cliquez sur les boutons verts avec une croix noire pour zoomer, sur le bouton vert avec un tiret pour effectuer un zoom arrière, ou sur les flèches vertes pour les cartes adjacentes.


METAR-TAF: